GJONW EGBO-EGBO
Flight info
| Callsign | GJONW |
|---|---|
| Flight time | 0h 9m |
| Altitude | 3500 |
| Route | TELBA DCT CONHA DCT ATHAS DCT BEPHE DCT KAMJU |
| Aircraft | BT36/L-BDFGLORY/S |
Departure
| Time | 2026-04-27 18:11 |
|---|---|
| Airport | Wolverhampton Halfpenny Green Airport (EGBO) |
Arrival
| Time | 2026-04-27 18:20 |
|---|---|
| Airport | Wolverhampton Halfpenny Green Airport (EGBO) |
| Time | Latitude | Longitude | Altitude | Speed | Heading |
|---|---|---|---|---|---|
| 2026-04-27 17:59 | 52.51569 | -2.26432 | 279 ft | 0 kts | 5° |
| 2026-04-27 18:06 | 52.51584 | -2.26443 | 278 ft | 6 kts | 286° |
| 2026-04-27 18:06 | 52.51577 | -2.26461 | 279 ft | 0 kts | 205° |
| 2026-04-27 18:07 | 52.51565 | -2.26469 | 279 ft | 4 kts | 200° |
| 2026-04-27 18:07 | 52.51528 | -2.26437 | 280 ft | 10 kts | 105° |
| 2026-04-27 18:07 | 52.51521 | -2.26269 | 280 ft | 17 kts | 98° |
| 2026-04-27 18:08 | 52.51463 | -2.26105 | 282 ft | 17 kts | 131° |
| 2026-04-27 18:08 | 52.51371 | -2.25992 | 284 ft | 17 kts | 156° |
| 2026-04-27 18:08 | 52.51302 | -2.25946 | 286 ft | 10 kts | 158° |
| 2026-04-27 18:08 | 52.51273 | -2.25865 | 287 ft | 9 kts | 112° |
| 2026-04-27 18:09 | 52.51251 | -2.25758 | 288 ft | 12 kts | 98° |
| 2026-04-27 18:09 | 52.51271 | -2.25626 | 292 ft | 11 kts | 17° |
| 2026-04-27 18:09 | 52.51307 | -2.25637 | 293 ft | 0 kts | 336° |
| 2026-04-27 18:10 | 52.51463 | -2.25750 | 287 ft | 61 kts | 336° |
| 2026-04-27 18:10 | 52.52017 | -2.26213 | 426 ft | 105 kts | 332° |
| 2026-04-27 18:10 | 52.52699 | -2.26878 | 684 ft | 127 kts | 337° |
| 2026-04-27 18:10 | 52.53567 | -2.27538 | 840 ft | 145 kts | 338° |
| 2026-04-27 18:11 | 52.54454 | -2.28217 | 987 ft | 136 kts | 337° |
| 2026-04-27 18:11 | 52.55259 | -2.28917 | 1106 ft | 129 kts | 322° |
| 2026-04-27 18:11 | 52.55532 | -2.30293 | 1230 ft | 136 kts | 271° |
| 2026-04-27 18:11 | 52.55396 | -2.31835 | 1363 ft | 137 kts | 270° |
| 2026-04-27 18:12 | 52.55270 | -2.33381 | 1489 ft | 136 kts | 270° |
| 2026-04-27 18:12 | 52.55183 | -2.34961 | 1497 ft | 139 kts | 284° |
| 2026-04-27 18:12 | 52.55681 | -2.36165 | 1499 ft | 128 kts | 337° |
| 2026-04-27 18:12 | 52.56531 | -2.36061 | 1516 ft | 130 kts | 30° |
| 2026-04-27 18:13 | 52.57152 | -2.34953 | 1519 ft | 134 kts | 45° |
| 2026-04-27 18:13 | 52.57445 | -2.33450 | 1515 ft | 150 kts | 84° |
| 2026-04-27 18:13 | 52.57368 | -2.31735 | 1516 ft | 150 kts | 86° |
| 2026-04-27 18:13 | 52.57286 | -2.30030 | 1516 ft | 150 kts | 87° |
| 2026-04-27 18:14 | 52.57203 | -2.28323 | 1515 ft | 150 kts | 86° |
| 2026-04-27 18:14 | 52.57108 | -2.26605 | 1518 ft | 153 kts | 87° |
| 2026-04-27 18:14 | 52.56651 | -2.24980 | 1510 ft | 169 kts | 131° |
| 2026-04-27 18:14 | 52.55603 | -2.24067 | 1508 ft | 175 kts | 154° |
| 2026-04-27 18:15 | 52.54477 | -2.23303 | 1510 ft | 176 kts | 154° |
| 2026-04-27 18:15 | 52.53345 | -2.22533 | 1506 ft | 176 kts | 154° |
| 2026-04-27 18:15 | 52.52225 | -2.21771 | 1510 ft | 173 kts | 154° |
| 2026-04-27 18:15 | 52.51124 | -2.21014 | 1515 ft | 171 kts | 154° |
| 2026-04-27 18:16 | 52.50029 | -2.20264 | 1506 ft | 170 kts | 154° |
| 2026-04-27 18:16 | 52.48944 | -2.19506 | 1506 ft | 169 kts | 154° |
| 2026-04-27 18:16 | 52.47860 | -2.18767 | 1504 ft | 169 kts | 154° |
| 2026-04-27 18:16 | 52.46702 | -2.18495 | 1498 ft | 174 kts | 193° |
| 2026-04-27 18:17 | 52.45665 | -2.19446 | 1500 ft | 171 kts | 221° |
| 2026-04-27 18:17 | 52.44837 | -2.20774 | 1490 ft | 162 kts | 249° |
| 2026-04-27 18:17 | 52.44717 | -2.22471 | 1499 ft | 146 kts | 285° |
| 2026-04-27 18:17 | 52.45043 | -2.23948 | 1509 ft | 133 kts | 316° |
| 2026-04-27 18:18 | 52.45762 | -2.24792 | 1418 ft | 121 kts | 332° |
| 2026-04-27 18:18 | 52.46433 | -2.25490 | 1258 ft | 111 kts | 345° |
| 2026-04-27 18:18 | 52.47203 | -2.25485 | 969 ft | 106 kts | 5° |
| 2026-04-27 18:18 | 52.47828 | -2.25245 | 778 ft | 85 kts | 17° |
| 2026-04-27 18:19 | 52.48362 | -2.24941 | 677 ft | 79 kts | 12° |
| 2026-04-27 18:19 | 52.48888 | -2.24751 | 671 ft | 81 kts | 8° |
| 2026-04-27 18:19 | 52.49453 | -2.24611 | 681 ft | 84 kts | 1° |
| 2026-04-27 18:19 | 52.50087 | -2.24761 | 603 ft | 97 kts | 347° |
| 2026-04-27 18:20 | 52.50725 | -2.25210 | 476 ft | 102 kts | 339° |
| 2026-04-27 18:20 | 52.51273 | -2.25618 | 334 ft | 72 kts | 339° |
| 2026-04-27 18:20 | 52.51674 | -2.25905 | 281 ft | 53 kts | 336° |
| 2026-04-27 18:20 | 52.51944 | -2.26104 | 276 ft | 28 kts | 333° |
| 2026-04-27 18:21 | 52.52001 | -2.26205 | 274 ft | 11 kts | 225° |
| 2026-04-27 18:21 | 52.51937 | -2.26291 | 274 ft | 12 kts | 214° |
| 2026-04-27 18:21 | 52.51861 | -2.26380 | 276 ft | 16 kts | 216° |
| 2026-04-27 18:21 | 52.51758 | -2.26506 | 277 ft | 11 kts | 215° |
| 2026-04-27 18:22 | 52.51702 | -2.26484 | 278 ft | 15 kts | 97° |
| 2026-04-27 18:22 | 52.51655 | -2.26426 | 275 ft | 10 kts | 185° |
| 2026-04-27 18:22 | 52.51599 | -2.26419 | 278 ft | 8 kts | 197° |
| 2026-04-27 18:22 | 52.51575 | -2.26431 | 279 ft | 0 kts | 183° |